createdAt,value
2018-04-29T00:01:23.676Z,23.20
2018-04-29T00:03:49.676Z,22.30
2018-04-29T00:06:15.647Z,24.00
2018-04-29T00:08:41.624Z,28.03
2018-04-29T00:11:07.579Z,24.60
2018-04-29T00:13:33.648Z,27.40
2018-04-29T00:15:59.676Z,25.63
2018-04-29T00:18:25.634Z,23.73
2018-04-29T00:20:52.355Z,25.33
2018-04-29T00:23:18.312Z,26.67
2018-04-29T00:25:44.298Z,26.63
2018-04-29T00:28:10.298Z,28.80
2018-04-29T00:30:37.003Z,24.10
2018-04-29T00:33:02.991Z,24.07
2018-04-29T00:35:28.983Z,22.07
2018-04-29T00:37:54.940Z,25.57
2018-04-29T00:40:20.960Z,23.73
2018-04-29T00:42:46.964Z,28.20
2018-04-29T00:45:12.959Z,30.77
2018-04-29T00:47:38.911Z,31.40
2018-04-29T00:50:05.646Z,31.17
2018-04-29T00:52:31.619Z,28.17
2018-04-29T00:54:57.625Z,33.07
2018-04-29T00:57:23.626Z,34.17
2018-04-29T00:59:49.615Z,33.67
2018-04-29T01:02:16.305Z,35.90
2018-04-29T01:04:42.308Z,30.23
2018-04-29T01:07:09.017Z,32.80
2018-04-29T01:09:34.970Z,24.00
2018-04-29T01:12:00.964Z,27.27
2018-04-29T01:14:26.906Z,21.83
2018-04-29T01:16:52.890Z,25.07
2018-04-29T01:19:19.581Z,26.73
2018-04-29T01:21:45.547Z,24.70
2018-04-29T01:24:11.528Z,25.43
2018-04-29T01:26:38.275Z,34.73
2018-04-29T01:29:05.000Z,24.10
2018-04-29T01:31:31.021Z,22.20
2018-04-29T01:33:57.036Z,29.40
2018-04-29T01:36:23.026Z,21.37
2018-04-29T01:38:48.979Z,21.13
2018-04-29T01:41:15.712Z,23.23
2018-04-29T01:43:41.663Z,27.60
2018-04-29T01:46:08.401Z,25.63
2018-04-29T01:48:34.387Z,23.40
2018-04-29T01:51:00.398Z,20.67
2018-04-29T01:53:26.391Z,24.13
2018-04-29T01:55:52.344Z,19.77
2018-04-29T01:58:19.175Z,21.90
2018-04-29T02:00:45.223Z,23.63
2018-04-29T02:03:11.192Z,23.30
2018-04-29T02:05:45.033Z,20.63
2018-04-29T02:08:10.993Z,23.93
2018-04-29T02:10:36.988Z,24.10
2018-04-29T02:13:04.221Z,21.77
2018-04-29T02:15:30.983Z,23.20
2018-04-29T02:17:56.944Z,22.00
2018-04-29T02:20:24.679Z,22.43
2018-04-29T02:22:50.641Z,23.60
2018-04-29T02:25:17.567Z,23.90
2018-04-29T02:27:43.515Z,22.70
2018-04-29T02:30:09.503Z,21.00
2018-04-29T02:32:42.572Z,21.20
2018-04-29T02:35:08.523Z,22.23
2018-04-29T02:37:35.264Z,23.50
2018-04-29T02:40:02.005Z,21.80
2018-04-29T02:42:28.015Z,21.57
2018-04-29T02:44:54.039Z,22.67
2018-04-29T02:47:20.011Z,23.50
2018-04-29T02:49:46.008Z,23.23
2018-04-29T02:52:11.960Z,24.20
2018-04-29T02:54:38.000Z,23.60
2018-04-29T02:57:03.982Z,25.63
2018-04-29T02:59:30.773Z,24.30
2018-04-29T03:01:56.745Z,29.90
2018-04-29T03:04:22.731Z,23.83
2018-04-29T03:06:49.701Z,23.77
2018-04-29T03:09:15.673Z,23.50
2018-04-29T03:11:41.680Z,24.43
2018-04-29T03:14:07.663Z,24.57
2018-04-29T03:16:35.135Z,25.43
2018-04-29T03:19:01.105Z,27.53
2018-04-29T03:21:27.111Z,26.03
2018-04-29T03:23:53.827Z,25.00
2018-04-29T03:26:19.832Z,23.13
2018-04-29T03:28:45.835Z,24.57
2018-04-29T03:31:11.807Z,24.90
2018-04-29T03:33:37.827Z,23.83
2018-04-29T03:36:03.846Z,22.90
2018-04-29T03:38:30.614Z,23.10
2018-04-29T03:40:57.346Z,23.33
2018-04-29T03:43:23.336Z,21.57
2018-04-29T03:45:49.288Z,20.80
2018-04-29T03:48:15.272Z,21.80
2018-04-29T03:50:41.303Z,20.40
2018-04-29T03:53:08.003Z,19.87
2018-04-29T03:55:34.033Z,19.77
2018-04-29T03:58:12.399Z,18.47
2018-04-29T04:00:50.888Z,19.30
2018-04-29T04:03:29.326Z,17.93
2018-04-29T04:05:56.113Z,20.17
2018-04-29T04:08:22.085Z,17.87
2018-04-29T04:10:48.065Z,17.47
2018-04-29T04:13:14.050Z,16.77
2018-04-29T04:15:40.752Z,18.00
2018-04-29T04:18:06.783Z,17.10
2018-04-29T04:20:32.767Z,17.07
2018-04-29T04:22:59.524Z,17.90
2018-04-29T04:25:26.219Z,20.90
2018-04-29T04:27:52.223Z,16.73
2018-04-29T04:30:18.942Z,16.67
2018-04-29T04:32:44.939Z,18.90
2018-04-29T04:35:10.944Z,19.50
2018-04-29T04:37:37.669Z,19.03
2018-04-29T04:40:03.696Z,18.73
2018-04-29T04:42:29.689Z,18.87
2018-04-29T04:44:55.724Z,21.30
2018-04-29T04:47:21.689Z,20.33
2018-04-29T04:49:47.728Z,20.13
2018-04-29T04:52:13.700Z,17.97
2018-04-29T04:54:39.661Z,17.87
2018-04-29T04:57:05.651Z,16.90
2018-04-29T04:59:31.653Z,17.47
2018-04-29T05:01:57.660Z,17.70
2018-04-29T05:04:23.669Z,15.87
2018-04-29T05:06:49.647Z,14.90
2018-04-29T05:09:15.644Z,15.83
2018-04-29T05:11:41.648Z,14.83
2018-04-29T05:14:08.356Z,16.53
2018-04-29T05:16:34.375Z,15.47
2018-04-29T05:19:00.392Z,16.80
2018-04-29T05:21:26.384Z,18.10
2018-04-29T05:23:52.389Z,17.23
2018-04-29T05:26:33.328Z,16.50
2018-04-29T05:29:00.069Z,15.03
2018-04-29T05:31:26.064Z,17.90
2018-04-29T05:33:52.163Z,16.10
2018-04-29T05:36:18.153Z,17.77
2018-04-29T05:38:44.116Z,16.63
2018-04-29T05:41:10.154Z,17.10
2018-04-29T05:43:36.118Z,18.37
2018-04-29T05:46:02.868Z,16.93
2018-04-29T05:48:29.620Z,18.63
2018-04-29T05:50:56.365Z,16.13
2018-04-29T05:53:23.105Z,17.30
2018-04-29T05:55:49.119Z,19.73
2018-04-29T05:58:15.105Z,16.57
2018-04-29T06:00:41.148Z,20.10
2018-04-29T06:03:07.839Z,19.60
2018-04-29T06:05:33.837Z,21.40
2018-04-29T06:08:00.568Z,21.20
2018-04-29T06:10:26.556Z,17.83
2018-04-29T06:12:53.366Z,20.83
2018-04-29T06:15:19.327Z,19.60
2018-04-29T06:20:35.738Z,24.60
2018-04-29T06:23:01.689Z,21.67
2018-04-29T06:25:28.412Z,23.70
2018-04-29T06:27:54.377Z,25.73
2018-04-29T06:30:21.110Z,24.20
2018-04-29T06:32:47.108Z,24.47
2018-04-29T06:35:13.164Z,23.17
2018-04-29T06:37:39.116Z,22.37
2018-04-29T06:40:05.120Z,19.90
2018-04-29T06:42:31.827Z,18.90
2018-04-29T06:44:58.428Z,17.40
2018-04-29T06:47:24.399Z,20.70
2018-04-29T06:49:50.427Z,16.47
2018-04-29T06:52:16.423Z,21.23
2018-04-29T06:54:42.438Z,18.20
2018-04-29T06:57:08.401Z,24.53
2018-04-29T06:59:35.144Z,17.47
2018-04-29T07:02:01.112Z,13.43
2018-04-29T07:04:27.071Z,14.63
2018-04-29T07:06:53.065Z,13.67
2018-04-29T07:09:19.050Z,13.53
2018-04-29T07:11:45.095Z,13.97
2018-04-29T07:14:11.101Z,13.03
2018-04-29T07:16:37.056Z,12.77
2018-04-29T07:19:04.582Z,13.10
2018-04-29T07:21:30.589Z,13.60
2018-04-29T07:23:56.557Z,13.93
2018-04-29T07:26:22.552Z,14.10
2018-04-29T07:28:48.504Z,13.17
2018-04-29T07:31:14.627Z,15.53
2018-04-29T07:33:40.591Z,13.90
2018-04-29T07:36:06.608Z,13.30
2018-04-29T07:38:32.580Z,15.43
2018-04-29T07:40:58.566Z,14.83
2018-04-29T07:43:25.316Z,15.43
2018-04-29T07:45:52.064Z,13.17
2018-04-29T07:48:18.806Z,11.73
2018-04-29T07:50:45.373Z,12.97
2018-04-29T07:53:12.157Z,11.77
2018-04-29T07:55:38.107Z,11.30
2018-04-29T07:58:04.122Z,12.20
2018-04-29T08:00:30.089Z,13.90
2018-04-29T08:02:56.080Z,12.13
2018-04-29T08:05:22.817Z,13.57
2018-04-29T08:07:48.812Z,14.03
2018-04-29T08:10:14.764Z,11.50
2018-04-29T08:12:40.751Z,13.87
2018-04-29T08:15:07.455Z,13.37
2018-04-29T08:17:33.476Z,11.60
2018-04-29T08:19:59.442Z,12.07
2018-04-29T08:22:25.461Z,11.40
2018-04-29T08:24:51.434Z,11.20
2018-04-29T08:27:17.407Z,12.63
2018-04-29T08:29:43.450Z,13.57
2018-04-29T08:32:09.404Z,12.50
2018-04-29T08:34:35.400Z,12.23
2018-04-29T08:37:02.117Z,12.47
2018-04-29T08:39:28.107Z,12.90
2018-04-29T08:41:54.069Z,15.43
2018-04-29T08:44:20.095Z,12.53
2018-04-29T08:46:46.056Z,16.30
2018-04-29T08:49:12.044Z,13.57
2018-04-29T08:51:38.756Z,13.53
2018-04-29T08:54:04.760Z,12.90
2018-04-29T08:56:30.716Z,12.50
2018-04-29T08:58:56.704Z,13.93
2018-04-29T09:01:23.407Z,14.83
2018-04-29T09:03:49.473Z,14.17
2018-04-29T09:06:15.393Z,14.00
2018-04-29T09:08:41.367Z,16.17
2018-04-29T09:11:08.088Z,13.93
2018-04-29T09:13:34.048Z,12.53
2018-04-29T09:16:00.052Z,14.10
2018-04-29T09:18:26.073Z,12.00
2018-04-29T09:20:52.044Z,11.23
2018-04-29T09:23:18.031Z,11.63
2018-04-29T09:25:44.029Z,12.20
2018-04-29T09:28:09.980Z,10.00
2018-04-29T09:30:35.976Z,10.63
2018-04-29T09:33:01.952Z,11.33
2018-04-29T09:35:27.924Z,10.93
2018-04-29T09:37:54.672Z,11.63
2018-04-29T09:40:20.640Z,9.23
2018-04-29T09:42:46.715Z,12.30
2018-04-29T09:45:20.343Z,10.07
2018-04-29T09:47:46.343Z,9.73
2018-04-29T09:50:12.350Z,9.63
2018-04-29T09:52:39.108Z,9.00
2018-04-29T09:55:05.069Z,8.17
2018-04-29T09:57:31.063Z,7.57
2018-04-29T09:59:57.775Z,7.10
2018-04-29T10:02:23.798Z,8.97
2018-04-29T10:04:49.760Z,7.70
2018-04-29T10:07:15.751Z,7.20
2018-04-29T10:09:41.720Z,7.43
2018-04-29T10:12:07.782Z,7.80
2018-04-29T10:14:33.809Z,7.50
2018-04-29T10:16:59.805Z,6.33
2018-04-29T10:19:25.807Z,6.33
2018-04-29T10:21:52.516Z,7.07
2018-04-29T10:24:18.501Z,9.17
2018-04-29T10:26:45.239Z,6.00
2018-04-29T10:29:11.220Z,7.30
2018-04-29T10:31:37.243Z,7.53
2018-04-29T10:34:03.995Z,7.03
2018-04-29T10:36:30.774Z,5.70
2018-04-29T10:38:56.756Z,5.73
2018-04-29T10:41:23.760Z,9.03
2018-04-29T10:43:50.496Z,7.37
2018-04-29T10:46:17.239Z,6.83
2018-04-29T10:48:43.984Z,10.83
2018-04-29T10:51:09.946Z,9.50
2018-04-29T10:53:35.935Z,6.97
2018-04-29T10:56:01.981Z,8.57
2018-04-29T10:58:27.969Z,6.90
2018-04-29T11:00:54.672Z,7.00
2018-04-29T11:03:20.668Z,8.57
2018-04-29T11:05:47.375Z,8.83
2018-04-29T11:08:14.129Z,9.17
2018-04-29T11:10:40.116Z,7.37
2018-04-29T11:13:06.070Z,6.40
2018-04-29T11:15:32.104Z,6.90
2018-04-29T11:17:58.109Z,5.97
2018-04-29T11:20:24.096Z,7.13
2018-04-29T11:22:50.670Z,6.90
2018-04-29T11:25:16.668Z,9.03
2018-04-29T11:27:42.655Z,7.70
2018-04-29T11:30:08.612Z,7.20
2018-04-29T11:32:34.612Z,7.40
2018-04-29T11:35:01.505Z,8.00
2018-04-29T11:37:27.502Z,6.73
2018-04-29T11:39:53.463Z,8.07
2018-04-29T11:42:19.447Z,6.73
2018-04-29T11:44:46.147Z,9.17
2018-04-29T11:47:12.168Z,10.23
2018-04-29T11:49:38.124Z,7.47
2018-04-29T11:52:04.628Z,7.47
2018-04-29T11:54:31.362Z,7.40
2018-04-29T11:56:57.362Z,6.77
2018-04-29T11:59:23.347Z,8.57
2018-04-29T12:01:50.154Z,7.77
2018-04-29T12:04:16.866Z,8.00
2018-04-29T12:06:42.832Z,8.63
2018-04-29T12:09:08.819Z,7.83
2018-04-29T12:11:34.840Z,8.47
2018-04-29T12:14:01.576Z,8.67
2018-04-29T12:16:27.561Z,9.10
2018-04-29T12:18:54.329Z,9.30
2018-04-29T12:21:21.069Z,11.50
2018-04-29T12:23:47.751Z,12.97
2018-04-29T12:26:13.707Z,9.80
2018-04-29T12:28:39.695Z,10.07
2018-04-29T12:31:06.435Z,10.30
2018-04-29T12:33:32.459Z,9.47
2018-04-29T12:35:58.433Z,13.10
2018-04-29T12:38:25.140Z,10.03
2018-04-29T12:40:51.101Z,10.17
2018-04-29T12:43:17.137Z,8.90
2018-04-29T12:45:43.088Z,10.63
2018-04-29T12:48:09.803Z,10.67
2018-04-29T12:50:35.755Z,9.63
2018-04-29T12:53:01.773Z,10.27
2018-04-29T12:55:27.769Z,10.53
2018-04-29T12:57:53.774Z,11.40
2018-04-29T13:00:19.809Z,10.10
2018-04-29T13:02:46.626Z,12.00
2018-04-29T13:05:12.590Z,9.13
2018-04-29T13:07:38.591Z,10.30
2018-04-29T13:10:04.560Z,9.93
2018-04-29T13:12:30.544Z,10.60
2018-04-29T13:14:56.544Z,9.50
2018-04-29T13:17:22.512Z,11.50
2018-04-29T13:19:48.533Z,10.37
2018-04-29T13:22:15.255Z,11.10
2018-04-29T13:24:41.243Z,10.10
2018-04-29T13:27:07.206Z,10.43
2018-04-29T13:29:33.257Z,10.97
2018-04-29T13:31:59.907Z,12.43
2018-04-29T13:34:25.873Z,10.20
2018-04-29T13:36:52.595Z,10.90
2018-04-29T13:39:18.556Z,11.07
2018-04-29T13:41:45.899Z,9.73
2018-04-29T13:44:13.842Z,9.80
2018-04-29T13:46:39.856Z,10.90
2018-04-29T13:49:06.552Z,9.97
2018-04-29T13:51:32.545Z,10.10
2018-04-29T13:53:59.285Z,9.70
2018-04-29T13:56:25.260Z,10.20
2018-04-29T13:58:51.327Z,12.93
2018-04-29T14:01:17.984Z,9.50
2018-04-29T14:03:43.980Z,11.43
2018-04-29T14:06:09.973Z,10.50
2018-04-29T14:08:35.941Z,10.37
2018-04-29T14:11:01.929Z,10.63
2018-04-29T14:13:27.923Z,11.40
2018-04-29T14:15:53.918Z,11.13
2018-04-29T14:18:19.940Z,11.40
2018-04-29T14:20:45.931Z,10.80
2018-04-29T14:23:11.947Z,10.20
2018-04-29T14:25:38.672Z,10.67
2018-04-29T14:28:04.658Z,11.27
2018-04-29T14:30:30.676Z,10.50
2018-04-29T14:32:57.404Z,11.43
2018-04-29T14:35:24.128Z,10.23
2018-04-29T14:37:50.148Z,10.43
2018-04-29T14:40:16.108Z,9.57
2018-04-29T14:42:42.085Z,11.10
2018-04-29T14:45:08.820Z,10.40
2018-04-29T14:47:34.840Z,9.97
2018-04-29T14:50:00.940Z,11.17
2018-04-29T14:52:26.924Z,9.63
2018-04-29T14:54:52.907Z,9.73
2018-04-29T14:57:18.874Z,9.53
2018-04-29T14:59:44.924Z,10.83
2018-04-29T15:02:10.925Z,10.13
2018-04-29T15:04:37.007Z,16.20
2018-04-29T15:07:02.980Z,9.70
2018-04-29T15:09:29.613Z,11.50
2018-04-29T15:11:55.631Z,10.20
2018-04-29T15:14:26.388Z,11.93
2018-04-29T15:16:52.378Z,10.33
2018-04-29T15:19:18.397Z,10.83
2018-04-29T15:21:44.579Z,12.00
2018-04-29T15:24:11.239Z,11.00
2018-04-29T15:26:37.223Z,10.10
2018-04-29T15:29:03.217Z,10.90
2018-04-29T15:31:29.224Z,10.33
2018-04-29T15:33:55.191Z,10.17
2018-04-29T15:36:21.195Z,12.63
2018-04-29T15:38:48.076Z,11.50
2018-04-29T15:41:14.834Z,9.87
2018-04-29T15:43:40.895Z,10.30
2018-04-29T15:46:06.924Z,10.90
2018-04-29T15:48:32.904Z,10.27
2018-04-29T15:50:59.013Z,9.90
2018-04-29T15:53:24.987Z,10.40
2018-04-29T15:55:50.988Z,9.17
2018-04-29T15:58:16.975Z,10.20
2018-04-29T16:00:43.007Z,10.73
2018-04-29T16:03:10.049Z,9.60
2018-04-29T16:05:36.092Z,11.80
2018-04-29T16:08:03.145Z,9.80
2018-04-29T16:10:29.435Z,10.10
2018-04-29T16:12:57.254Z,11.30
2018-04-29T16:15:23.227Z,10.07
2018-04-29T16:17:49.279Z,9.13
2018-04-29T16:20:16.040Z,9.87
2018-04-29T16:22:42.033Z,11.63
2018-04-29T16:25:08.004Z,11.57
2018-04-29T16:27:34.064Z,11.53
2018-04-29T16:30:00.068Z,11.60
2018-04-29T16:32:26.517Z,11.37
2018-04-29T16:34:52.507Z,10.00
2018-04-29T16:37:18.529Z,11.03
2018-04-29T16:39:44.615Z,11.03
2018-04-29T16:42:10.647Z,10.83
2018-04-29T16:44:36.709Z,9.20
2018-04-29T16:47:03.471Z,10.83
2018-04-29T16:49:29.497Z,10.97
2018-04-29T16:51:56.291Z,10.60
2018-04-29T16:54:22.296Z,10.63
2018-04-29T16:56:49.047Z,9.07
2018-04-29T16:59:15.054Z,12.40
2018-04-29T17:01:41.056Z,12.27
2018-04-29T17:04:07.100Z,10.13
2018-04-29T17:06:33.082Z,13.00
2018-04-29T17:08:59.073Z,11.90
2018-04-29T17:11:25.117Z,11.43
2018-04-29T17:13:51.080Z,12.87
2018-04-29T17:16:17.812Z,13.00
2018-04-29T17:18:43.813Z,10.97
2018-04-29T17:21:09.788Z,11.43
2018-04-29T17:23:35.771Z,12.07
2018-04-29T17:26:01.796Z,10.53
2018-04-29T17:28:27.819Z,10.60
2018-04-29T17:30:53.798Z,9.77
2018-04-29T17:33:20.520Z,9.50
2018-04-29T17:35:46.499Z,9.50
2018-04-29T17:38:12.527Z,12.93
2018-04-29T17:40:38.455Z,10.00
2018-04-29T17:43:05.485Z,9.40
2018-04-29T17:45:32.560Z,8.80
2018-04-29T17:47:59.304Z,13.30
2018-04-29T17:50:25.316Z,9.73
2018-04-29T17:52:51.676Z,9.73
2018-04-29T17:55:18.472Z,11.53
2018-04-29T17:57:44.443Z,11.13
2018-04-29T18:00:10.505Z,10.30
2018-04-29T18:02:36.577Z,10.20
2018-04-29T18:05:02.623Z,9.87
2018-04-29T18:07:28.584Z,9.20
2018-04-29T18:09:54.539Z,9.30
2018-04-29T18:12:20.543Z,10.63
2018-04-29T18:14:46.521Z,10.03
2018-04-29T18:17:12.562Z,12.00
2018-04-29T18:19:38.588Z,8.80
2018-04-29T18:22:04.573Z,10.37
2018-04-29T18:24:30.598Z,9.87
2018-04-29T18:26:56.568Z,10.67
2018-04-29T18:29:23.984Z,9.40
2018-04-29T18:31:50.785Z,11.27
2018-04-29T18:34:16.763Z,11.57
2018-04-29T18:36:42.768Z,10.30
2018-04-29T18:39:08.721Z,12.50
2018-04-29T18:41:34.672Z,10.77
2018-04-29T18:44:01.394Z,11.27
2018-04-29T18:46:27.379Z,11.63
2018-04-29T18:48:53.372Z,12.33
2018-04-29T18:51:19.453Z,12.00
2018-04-29T18:53:46.128Z,13.00
2018-04-29T18:56:12.874Z,12.30
2018-04-29T18:58:39.593Z,11.80
2018-04-29T19:01:05.544Z,13.77
2018-04-29T19:03:31.538Z,12.60
2018-04-29T19:05:58.467Z,13.73
2018-04-29T19:08:25.263Z,12.77
2018-04-29T19:10:51.265Z,12.00
2018-04-29T19:13:17.219Z,11.43
2018-04-29T19:15:43.195Z,12.43
2018-04-29T19:18:09.196Z,13.43
2018-04-29T19:20:35.279Z,11.07
2018-04-29T19:23:01.277Z,11.83
2018-04-29T19:25:27.256Z,12.70
2018-04-29T19:27:53.268Z,11.73
2018-04-29T19:30:20.003Z,12.70
2018-04-29T19:32:46.752Z,13.10
2018-04-29T19:35:13.452Z,12.70
2018-04-29T19:37:39.439Z,13.57
2018-04-29T19:40:05.397Z,12.47
2018-04-29T19:42:32.635Z,13.43
2018-04-29T19:44:58.628Z,12.73
2018-04-29T19:47:24.632Z,13.00
2018-04-29T19:49:51.348Z,12.93
2018-04-29T19:52:17.320Z,13.97
2018-04-29T19:54:44.070Z,13.10
2018-04-29T19:57:10.781Z,13.67
2018-04-29T19:59:36.777Z,13.73
2018-04-29T20:02:03.489Z,15.43
2018-04-29T20:04:29.504Z,15.57
2018-04-29T20:06:55.471Z,13.43
2018-04-29T20:09:21.461Z,14.00
2018-04-29T20:11:48.475Z,15.20
2018-04-29T20:14:14.459Z,14.33
2018-04-29T20:16:40.423Z,14.90
2018-04-29T20:19:06.488Z,15.67
2018-04-29T20:21:32.496Z,15.80
2018-04-29T20:23:58.465Z,15.47
2018-04-29T20:26:25.156Z,14.10
2018-04-29T20:28:58.340Z,14.53
2018-04-29T20:31:25.096Z,14.87
2018-04-29T20:33:51.897Z,14.43
2018-04-29T20:36:17.905Z,16.27
2018-04-29T20:38:43.927Z,16.37
2018-04-29T20:41:09.973Z,16.27
2018-04-29T20:43:35.955Z,17.40
2018-04-29T20:46:03.431Z,17.30
2018-04-29T20:48:29.490Z,17.17
2018-04-29T20:50:55.398Z,16.30
2018-04-29T20:53:21.403Z,16.50
2018-04-29T20:55:47.419Z,18.57
2018-04-29T20:58:13.384Z,18.23
2018-04-29T21:00:39.370Z,17.73
2018-04-29T21:03:06.084Z,18.30
2018-04-29T21:05:32.069Z,19.47
2018-04-29T21:07:58.823Z,20.00
2018-04-29T21:10:24.816Z,16.60
2018-04-29T21:12:50.801Z,20.03
2018-04-29T21:15:16.761Z,17.97
2018-04-29T21:17:42.750Z,19.20
2018-04-29T21:20:09.466Z,19.53
2018-04-29T21:22:35.456Z,18.33
2018-04-29T21:25:02.221Z,19.37
2018-04-29T21:27:28.224Z,19.57
2018-04-29T21:29:54.189Z,19.90
2018-04-29T21:32:20.229Z,20.37
2018-04-29T21:34:46.208Z,20.23
2018-04-29T21:37:12.199Z,21.40
2018-04-29T21:39:38.156Z,21.03
2018-04-29T21:42:04.155Z,21.83
2018-04-29T21:44:30.888Z,22.03
2018-04-29T21:46:56.856Z,22.63
2018-04-29T21:49:23.582Z,22.30
2018-04-29T21:51:50.431Z,21.33
2018-04-29T21:54:16.397Z,23.37
2018-04-29T21:56:43.119Z,21.23
2018-04-29T21:59:09.084Z,19.70
2018-04-29T22:01:35.812Z,20.83
2018-04-29T22:04:01.795Z,22.20
2018-04-29T22:06:27.755Z,21.20
2018-04-29T22:08:53.760Z,22.80
2018-04-29T22:11:19.765Z,21.27
2018-04-29T22:13:46.480Z,23.20
2018-04-29T22:16:12.474Z,23.40
2018-04-29T22:18:39.183Z,22.33
2018-04-29T22:21:05.164Z,21.27
2018-04-29T22:23:31.896Z,22.00
2018-04-29T22:25:57.903Z,21.23
2018-04-29T22:28:23.888Z,21.27
2018-04-29T22:30:50.627Z,21.77
2018-04-29T22:33:17.367Z,21.93
2018-04-29T22:35:43.360Z,22.37
2018-04-29T22:38:09.320Z,21.37
2018-04-29T22:40:35.299Z,24.37
2018-04-29T22:43:02.023Z,20.63
2018-04-29T22:45:28.004Z,21.20
2018-04-29T22:47:53.972Z,23.60
2018-04-29T22:50:19.979Z,22.83
2018-04-29T22:52:45.919Z,20.10
2018-04-29T22:55:11.918Z,22.70
2018-04-29T22:57:37.935Z,20.37
2018-04-29T23:00:03.924Z,19.60
2018-04-29T23:02:29.904Z,21.27
2018-04-29T23:04:55.860Z,19.10
2018-04-29T23:07:21.852Z,21.73
2018-04-29T23:09:47.816Z,22.47
2018-04-29T23:12:13.798Z,23.50
2018-04-29T23:14:40.523Z,23.53
2018-04-29T23:17:07.918Z,22.17
2018-04-29T23:19:34.627Z,23.93
2018-04-29T23:22:00.589Z,22.20
2018-04-29T23:24:26.576Z,22.77
2018-04-29T23:26:52.563Z,24.40
2018-04-29T23:29:18.544Z,23.93
2018-04-29T23:31:44.507Z,21.03
2018-04-29T23:34:10.496Z,23.13
2018-04-29T23:36:36.520Z,22.23
2018-04-29T23:39:03.223Z,22.60
2018-04-29T23:41:29.204Z,24.47
2018-04-29T23:43:55.932Z,25.93
2018-04-29T23:46:21.899Z,23.40
2018-04-29T23:48:48.643Z,25.13
2018-04-29T23:51:15.392Z,23.37
2018-04-29T23:53:41.387Z,23.90
2018-04-29T23:56:07.390Z,22.03
2018-04-29T23:58:34.116Z,23.53
